Time;durP1;ratioP1;P1;durP2;ratioP2;P2;SDS_P1;SDS_P2;PMS_P1;PMS_P2;Temp;Humidity;BMP_temperature;BMP_pressure;BME280_temperature;BME280_humidity;BME280_pressure;Samples;Min_cycle;Max_cycle;Signal;HPM_P1;HPM_P2
2022/12/05 05:06:31;;;;;;;12.13;8.85;;;;;;;8.56;92.53;101157.59;5606103;31;80461;-55
2022/12/05 05:09:34;;;;;;;13.52;9.75;;;;;;;8.56;92.53;101157.59;5593936;31;34045;-55
2022/12/05 05:12:36;;;;;;;13.07;8.95;;;;;;;8.07;84.35;101165.41;5588708;31;33677;-55
2022/12/05 05:15:38;;;;;;;13.43;8.95;;;;;;;8.21;89.13;101168.56;5602750;31;33595;-55
2022/12/05 05:18:40;;;;;;;12.40;9.38;;;;;;;8.24;85.62;101182.25;5602942;31;33476;-55
2022/12/05 05:21:43;;;;;;;12.18;8.55;;;;;;;8.08;81.76;101183.06;5603679;31;33630;-56
2022/12/05 05:24:45;;;;;;;11.55;8.40;;;;;;;8.07;84.15;101180.62;5603238;31;34224;-55
2022/12/05 05:27:49;;;;;;;12.80;8.05;;;;;;;8.23;86.62;101190.50;5603719;31;34160;-55
2022/12/05 05:30:51;;;;;;;12.05;8.20;;;;;;;8.00;80.36;101202.97;5603344;31;33658;-55
2022/12/05 05:33:55;;;;;;;12.00;8.68;;;;;;;7.91;84.25;101192.91;5603039;31;34236;-56
2022/12/05 05:36:57;;;;;;;11.25;8.48;;;;;;;7.98;87.25;101186.37;5603064;31;34395;-55
2022/12/05 05:39:59;;;;;;;11.95;8.23;;;;;;;8.03;80.56;101185.66;5603586;31;33567;-55
2022/12/05 05:43:07;;;;;;;12.93;8.45;;;;;;;8.07;87.36;101193.97;5599600;31;33719;-55
2022/12/05 05:46:10;;;;;;;12.93;8.48;;;;;;;8.11;89.48;101192.44;5582210;32;34257;-55
2022/12/05 05:49:12;;;;;;;13.48;8.63;;;;;;;8.02;81.14;101196.59;5566698;32;33695;-55
2022/12/05 05:52:14;;;;;;;12.77;9.65;;;;;;;8.16;91.70;101195.19;5576691;32;33858;-54
2022/12/05 05:55:16;;;;;;;12.25;9.18;;;;;;;8.29;100.00;101191.38;5578414;31;33863;-55
2022/12/05 05:58:19;;;;;;;13.02;8.85;;;;;;;8.27;89.62;101196.16;5582473;31;34169;-56
2022/12/05 06:01:21;;;;;;;13.15;9.35;;;;;;;8.42;85.68;101197.22;5582264;32;34150;-55
2022/12/05 06:04:23;;;;;;;11.88;8.77;;;;;;;8.34;84.10;101186.91;5579834;32;33562;-56
2022/12/05 06:07:26;;;;;;;13.25;8.43;;;;;;;8.05;81.41;101191.56;5582236;31;33992;-55
2022/12/05 06:10:29;;;;;;;13.65;8.65;;;;;;;8.09;85.10;101199.91;5582469;32;33542;-55
2022/12/05 06:13:31;;;;;;;12.40;7.95;;;;;;;8.23;90.67;101204.66;5581431;31;34327;-55
2022/12/05 06:16:33;;;;;;;11.55;8.25;;;;;;;8.47;97.39;101210.63;5573602;31;33596;-55
2022/12/05 06:19:36;;;;;;;10.50;7.72;;;;;;;8.49;86.90;101217.63;5560882;32;34324;-55
2022/12/05 06:22:38;;;;;;;11.02;7.47;;;;;;;8.32;84.79;101221.09;5558806;32;34327;-56
2022/12/05 06:25:49;;;;;;;11.60;8.02;;;;;;;8.43;83.59;101224.75;5568286;32;32483;-55
2022/12/05 06:28:52;;;;;;;10.25;8.25;;;;;;;8.33;88.58;101220.03;5563310;32;33586;-55
2022/12/05 06:31:54;;;;;;;15.15;8.32;;;;;;;8.23;81.13;101215.34;5566307;32;33825;-56
2022/12/05 06:34:56;;;;;;;10.95;8.60;;;;;;;8.27;81.35;101210.31;5565945;32;33604;-55
2022/12/05 06:37:59;;;;;;;12.93;8.80;;;;;;;8.14;85.97;101216.78;5566345;32;34335;-55
2022/12/05 06:41:05;;;;;;;14.52;9.25;;;;;;;8.14;81.45;101218.66;5558242;32;33569;-56
2022/12/05 06:44:08;;;;;;;12.05;9.20;;;;;;;8.42;85.92;101225.81;5566482;32;33694;-55
2022/12/05 06:47:10;;;;;;;12.93;9.20;;;;;;;8.32;86.22;101222.97;5568314;32;34332;-55
2022/12/05 06:50:13;;;;;;;10.82;8.73;;;;;;;8.35;85.42;101225.94;5568438;32;34361;-55
2022/12/05 06:53:15;;;;;;;11.82;9.23;;;;;;;8.42;88.07;101226.63;5566611;32;33594;-55
2022/12/05 06:56:19;;;;;;;12.27;8.43;;;;;;;8.51;84.23;101227.03;5568271;32;33666;-55
2022/12/05 06:59:21;;;;;;;11.55;8.50;;;;;;;8.43;81.52;101228.22;5565096;32;33695;-56
2022/12/05 07:02:23;;;;;;;11.88;8.60;;;;;;;8.42;86.73;101223.94;5564832;31;33043;-55
2022/12/05 07:05:26;;;;;;;16.55;8.55;;;;;;;8.46;88.64;101224.25;5567378;32;34062;-55
2022/12/05 07:08:28;;;;;;;11.48;8.70;;;;;;;8.48;81.80;101235.53;5565300;32;33876;-56
2022/12/05 07:11:31;;;;;;;14.35;7.70;;;;;;;8.36;83.17;101240.09;5568899;32;33600;-55
2022/12/05 07:14:33;;;;;;;11.32;8.98;;;;;;;8.50;89.13;101251.28;5567441;32;34335;-55
2022/12/05 07:17:51;;;;;;;12.30;8.77;;;;;;;8.50;84.05;101246.75;5567270;32;33127;-55
2022/12/05 07:21:06;;;;;;;11.90;8.68;;;;;;;8.22;80.14;101244.97;5566452;32;33620;-55
2022/12/05 07:24:16;;;;;;;12.45;9.75;;;;;;;8.18;81.54;101257.22;5568189;32;33857;-55
2022/12/05 07:27:19;;;;;;;12.02;8.57;;;;;;;8.27;90.65;101253.06;5567220;32;33173;-55
2022/12/05 07:30:28;;;;;;;11.12;9.27;;;;;;;8.41;84.82;101243.72;5567076;32;34321;-55
2022/12/05 07:33:30;;;;;;;14.50;7.85;;;;;;;8.48;89.54;101256.91;5565903;32;33591;-55
2022/12/05 07:36:33;;;;;;;11.90;7.60;;;;;;;8.39;88.29;101263.69;5566380;32;34352;-55
2022/12/05 07:39:35;;;;;;;11.50;7.97;;;;;;;8.59;82.45;101265.88;5566772;32;34027;-57
2022/12/05 07:42:37;;;;;;;12.57;8.50;;;;;;;8.40;80.66;101265.31;5565194;32;33573;-56
2022/12/05 07:45:39;;;;;;;13.45;8.38;;;;;;;8.27;82.23;101274.44;5567009;32;34316;-55
2022/12/05 07:48:42;;;;;;;17.48;8.23;;;;;;;8.44;87.82;101272.62;5567647;32;33881;-55
2022/12/05 07:51:44;;;;;;;12.18;8.35;;;;;;;8.47;88.80;101279.31;5562572;32;33559;-55
2022/12/05 07:54:47;;;;;;;10.98;7.80;;;;;;;8.39;84.56;101277.06;5567785;32;34348;-55
2022/12/05 07:57:49;;;;;;;11.23;7.68;;;;;;;8.29;80.57;101277.69;5567620;32;34398;-55
2022/12/05 08:00:51;;;;;;;12.52;7.30;;;;;;;8.57;90.99;101274.13;5566754;32;33608;-55
2022/12/05 08:03:55;;;;;;;13.32;8.00;;;;;;;8.61;92.98;101280.63;5566456;32;32097;-55
2022/12/05 08:06:57;;;;;;;11.68;7.65;;;;;;;8.77;90.71;101284.28;5560770;32;34047;-55
2022/12/05 08:10:00;;;;;;;11.50;7.40;;;;;;;8.65;83.24;101279.06;5553132;32;33867;-55
2022/12/05 08:13:02;;;;;;;9.95;7.95;;;;;;;8.77;99.60;101286.16;5561341;32;33496;-55
2022/12/05 08:16:08;;;;;;;9.13;7.05;;;;;;;8.82;84.15;101286.25;5566239;32;33617;-55
2022/12/05 08:19:12;;;;;;;11.75;8.35;;;;;;;8.79;79.53;101284.87;5567484;32;33674;-55
2022/12/05 08:22:14;;;;;;;9.40;7.03;;;;;;;8.55;87.98;101278.91;5568262;32;33673;-55
2022/12/05 08:25:17;;;;;;;11.63;7.72;;;;;;;8.49;79.37;101285.22;5566953;32;33934;-55
2022/12/05 08:28:19;;;;;;;11.23;8.02;;;;;;;8.49;79.51;101277.22;5566997;32;33710;-55
2022/12/05 08:31:23;;;;;;;10.05;7.78;;;;;;;8.45;84.90;101281.44;5565096;32;34436;-56
2022/12/05 08:34:26;;;;;;;11.00;8.07;;;;;;;8.34;92.54;101285.75;5563672;32;33702;-55
2022/12/05 08:37:28;;;;;;;10.30;7.28;;;;;;;8.49;92.91;101287.91;5558753;32;33743;-55
2022/12/05 08:40:30;;;;;;;12.25;7.97;;;;;;;8.49;82.27;101287.09;5561470;32;33714;-55
2022/12/05 08:43:33;;;;;;;10.02;7.68;;;;;;;8.73;87.88;101285.84;5567911;32;33469;-57
2022/12/05 08:46:37;;;;;;;12.23;9.60;;;;;;;8.56;78.66;101291.22;5562310;32;33559;-55
2022/12/05 08:49:39;;;;;;;10.20;7.47;;;;;;;8.64;83.92;101295.34;5565937;32;33662;-55
2022/12/05 08:52:42;;;;;;;13.10;8.05;;;;;;;8.69;95.47;101290.06;5566146;32;33803;-55
2022/12/05 08:55:47;;;;;;;10.75;7.80;;;;;;;8.76;85.16;101290.72;5566795;32;33684;-55
2022/12/05 08:58:49;;;;;;;9.63;7.35;;;;;;;8.83;84.40;101283.31;5565024;32;33598;-56
2022/12/05 09:01:51;;;;;;;11.45;8.02;;;;;;;8.77;78.88;101281.63;5563691;32;33822;-56
2022/12/05 09:04:54;;;;;;;16.92;9.02;;;;;;;8.74;78.05;101283.97;5561088;32;33862;-55
2022/12/05 09:07:58;;;;;;;10.77;6.53;;;;;;;8.70;78.07;101286.34;5556011;32;33779;-56
2022/12/05 09:11:06;;;;;;;9.13;7.47;;;;;;;8.70;77.58;101289.81;5565513;32;33730;-56
2022/12/05 09:14:08;;;;;;;10.95;8.23;;;;;;;8.62;81.42;101284.91;5563745;32;33751;-55
2022/12/05 09:17:10;;;;;;;9.20;7.40;;;;;;;9.04;92.65;101284.44;5562880;32;33554;-55
2022/12/05 09:20:13;;;;;;;13.93;7.62;;;;;;;9.22;86.38;101283.31;5565402;32;33625;-55
2022/12/05 09:23:15;;;;;;;9.68;7.00;;;;;;;9.21;76.48;101278.22;5562917;32;33296;-55
2022/12/05 09:26:20;;;;;;;16.15;8.23;;;;;;;8.99;77.30;101273.66;5566542;32;34329;-56
2022/12/05 09:29:24;;;;;;;10.07;7.47;;;;;;;8.91;78.40;101269.53;5567209;32;33812;-55
2022/12/05 09:32:26;;;;;;;8.10;7.18;;;;;;;8.97;80.33;101275.75;5562247;32;34189;-55
2022/12/05 09:35:28;;;;;;;11.77;8.75;;;;;;;9.00;78.67;101277.13;5562282;32;33607;-55
2022/12/05 09:38:31;;;;;;;10.63;8.45;;;;;;;9.37;84.66;101278.16;5564475;32;34211;-55
2022/12/05 09:42:06;;;;;;;12.37;9.63;;;;;;;9.21;84.16;101270.19;5563147;32;33135;-55
2022/12/05 09:45:27;;;;;;;12.00;8.85;;;;;;;9.26;82.84;101273.72;5564268;32;33683;-55
2022/12/05 09:48:30;;;;;;;11.73;8.73;;;;;;;9.05;75.70;101269.19;5563629;32;33665;-55
2022/12/05 09:51:39;;;;;;;12.63;9.05;;;;;;;9.07;78.66;101264.37;5566949;32;33296;-55
2022/12/05 09:54:41;;;;;;;11.43;9.00;;;;;;;9.20;90.74;101272.03;5569497;32;34323;-56
2022/12/05 09:57:50;;;;;;;13.25;9.30;;;;;;;9.25;83.70;101264.06;5569665;32;33790;-55
2022/12/05 10:01:02;;;;;;;15.80;9.85;;;;;;;9.50;86.97;101260.87;5565220;32;34337;-54
2022/12/05 10:04:36;;;;;;;12.80;9.50;;;;;;;9.30;76.72;101261.44;5569426;32;33480;-55
2022/12/05 10:07:48;;;;;;;10.20;8.77;;;;;;;9.63;88.49;101265.03;5568824;32;33621;-55
2022/12/05 10:11:16;;;;;;;11.70;9.57;;;;;;;9.42;92.55;101250.63;5566708;32;33263;-55
2022/12/05 10:14:39;;;;;;;11.18;9.13;;;;;;;9.71;83.00;101242.38;5569251;32;34366;-55
2022/12/05 10:17:55;;;;;;;12.35;9.70;;;;;;;9.59;76.74;101240.63;5568381;32;33297;-55
2022/12/05 10:21:04;;;;;;;16.02;10.20;;;;;;;9.58;78.86;101235.53;5566489;32;33654;-55
2022/12/05 10:24:17;;;;;;;11.50;9.57;;;;;;;9.50;84.47;101225.28;5567263;32;33683;-56
2022/12/05 10:27:31;;;;;;;15.20;11.05;;;;;;;9.60;78.66;101228.06;5566735;32;33971;-55
2022/12/05 10:30:41;;;;;;;15.13;10.38;;;;;;;9.76;77.04;101220.97;5563563;32;34427;-55
2022/12/05 10:33:50;;;;;;;15.15;11.35;;;;;;;9.47;75.56;101215.06;5565562;32;33815;-55
2022/12/05 10:37:01;;;;;;;13.48;11.25;;;;;;;9.71;80.84;101205.69;5568780;32;34357;-55
2022/12/05 10:40:03;;;;;;;13.40;11.98;;;;;;;9.49;76.74;101219.13;5562913;32;34268;-56
2022/12/05 10:43:09;;;;;;;14.90;11.95;;;;;;;9.59;90.31;101208.50;5563433;32;33801;-55
2022/12/05 10:46:12;;;;;;;17.20;12.55;;;;;;;9.77;73.67;101204.69;5566062;32;33577;-55
2022/12/05 10:49:19;;;;;;;13.80;11.93;;;;;;;9.81;78.21;101202.28;5567503;32;33209;-56
2022/12/05 10:52:21;;;;;;;14.70;13.05;;;;;;;9.66;75.81;101197.59;5568072;32;33374;-55
2022/12/05 10:55:30;;;;;;;12.73;11.40;;;;;;;9.58;74.45;101198.06;5557608;32;33705;-56
2022/12/05 10:58:32;;;;;;;13.10;11.68;;;;;;;9.78;83.10;101200.94;5565960;32;33827;-55
2022/12/05 11:01:36;;;;;;;15.63;12.75;;;;;;;9.80;81.04;101206.84;5565713;32;33623;-55
2022/12/05 11:04:42;;;;;;;15.20;12.85;;;;;;;10.00;77.88;101194.66;5568662;32;32946;-55
2022/12/05 11:07:48;;;;;;;15.02;13.20;;;;;;;10.03;82.60;101194.97;5567544;32;33885;-55
2022/12/05 11:11:20;;;;;;;16.48;13.55;;;;;;;9.86;77.02;101186.25;5568055;32;34349;-55
2022/12/05 11:14:25;;;;;;;14.82;13.13;;;;;;;9.79;73.29;101188.34;5567155;32;34440;-55
2022/12/05 11:17:34;;;;;;;17.58;12.90;;;;;;;9.82;81.46;101175.25;5566294;32;33759;-56
2022/12/05 11:20:37;;;;;;;14.35;12.40;;;;;;;9.77;78.11;101182.44;5559013;32;34626;-55
2022/12/05 11:23:40;;;;;;;13.50;11.50;;;;;;;9.78;80.62;101184.84;5563940;32;33278;-55
2022/12/05 11:26:44;;;;;;;18.92;11.80;;;;;;;9.79;79.60;101180.31;5565454;32;33024;-55
2022/12/05 11:29:56;;;;;;;13.40;11.70;;;;;;;9.81;76.16;101170.97;5568566;32;33603;-55
2022/12/05 11:33:18;;;;;;;14.15;11.48;;;;;;;9.83;74.74;101181.41;5560692;32;34412;-55
2022/12/05 11:36:27;;;;;;;14.75;12.45;;;;;;;9.70;75.18;101188.00;5553218;32;34388;-55
2022/12/05 11:39:30;;;;;;;15.55;12.10;;;;;;;9.78;80.20;101181.38;5564832;32;33900;-55
2022/12/05 11:42:51;;;;;;;14.85;12.18;;;;;;;10.12;80.25;101172.00;5562627;32;33853;-54
2022/12/05 11:45:56;;;;;;;17.20;12.73;;;;;;;10.08;81.91;101172.78;5564105;32;33688;-55
2022/12/05 11:49:13;;;;;;;14.18;12.15;;;;;;;9.89;78.63;101150.94;5561123;32;33913;-56
2022/12/05 11:52:35;;;;;;;16.58;11.32;;;;;;;9.91;73.71;101154.16;5567708;32;33577;-55
2022/12/05 11:56:01;;;;;;;15.27;12.18;;;;;;;10.05;84.08;101147.28;5565591;32;33714;-55
2022/12/05 11:59:26;;;;;;;15.15;11.52;;;;;;;10.16;84.90;101144.69;5557639;32;34439;-56
2022/12/05 12:03:00;;;;;;;14.18;11.93;;;;;;;10.21;80.67;101152.75;5565449;32;33944;-55
2022/12/05 12:06:12;;;;;;;19.62;11.77;;;;;;;10.29;84.34;101136.22;5568697;32;34120;-55
2022/12/05 12:09:26;;;;;;;15.23;12.77;;;;;;;10.07;73.25;101136.34;5557563;32;34345;-55
2022/12/05 12:12:34;;;;;;;17.48;12.60;;;;;;;10.10;74.88;101115.19;5564424;32;33669;-57
2022/12/05 12:16:14;;;;;;;15.85;12.65;;;;;;;9.87;73.81;101132.44;5560988;32;32122;-55
2022/12/05 12:19:25;;;;;;;14.48;12.90;;;;;;;9.91;80.17;101134.63;5540194;32;33738;-55
2022/12/05 12:22:50;;;;;;;14.07;12.55;;;;;;;9.87;78.72;101139.69;5565736;32;34035;-55
2022/12/05 12:26:07;;;;;;;16.45;12.95;;;;;;;10.12;79.37;101131.81;5566132;32;34273;-55
2022/12/05 12:29:37;;;;;;;15.10;12.93;;;;;;;9.97;76.87;101134.41;5568290;32;33723;-55
2022/12/05 12:33:03;;;;;;;15.75;12.55;;;;;;;10.07;90.57;101114.91;5558967;32;34313;-56
2022/12/05 12:36:17;;;;;;;16.05;12.68;;;;;;;9.97;77.66;101112.16;5567425;32;35154;-55
2022/12/05 12:39:41;;;;;;;17.33;13.13;;;;;;;9.77;73.94;101113.62;5566367;32;35008;-55
2022/12/05 12:42:49;;;;;;;14.15;12.63;;;;;;;9.75;78.55;101112.28;5567832;32;33720;-55
2022/12/05 12:46:07;;;;;;;18.60;14.48;;;;;;;9.85;80.89;101109.66;5567262;32;34302;-55
2022/12/05 12:49:21;;;;;;;16.02;13.48;;;;;;;9.94;83.72;101113.47;5566350;32;33846;-55
2022/12/05 12:52:53;;;;;;;13.73;12.32;;;;;;;9.95;78.97;101106.25;5563682;32;33805;-55
2022/12/05 12:56:09;;;;;;;14.98;13.15;;;;;;;10.18;77.52;101111.22;5567627;32;34221;-55
2022/12/05 12:59:41;;;;;;;18.65;13.98;;;;;;;10.06;73.05;101113.28;5567501;32;34682;-55
2022/12/05 13:02:50;;;;;;;18.70;13.50;;;;;;;10.13;80.18;101103.12;5560444;32;33791;-55
2022/12/05 13:06:11;;;;;;;15.60;13.85;;;;;;;10.23;79.30;101097.03;5566948;32;33677;-55
2022/12/05 13:09:20;;;;;;;15.35;13.40;;;;;;;10.14;77.27;101099.41;5565172;32;34278;-55
2022/12/05 13:12:30;;;;;;;14.82;13.32;;;;;;;9.95;73.73;101107.06;5562802;32;33804;-55
2022/12/05 13:15:39;;;;;;;17.60;14.00;;;;;;;9.81;75.05;101100.53;5563643;32;34299;-56
2022/12/05 13:18:42;;;;;;;17.75;14.63;;;;;;;9.77;89.86;101105.59;5566483;32;33743;-55
2022/12/05 13:21:44;;;;;;;22.25;15.93;;;;;;;10.01;87.51;101087.28;5567019;32;33748;-55
2022/12/05 13:24:52;;;;;;;18.10;14.95;;;;;;;9.97;77.56;101088.06;5556747;32;33674;-56
2022/12/05 13:28:00;;;;;;;19.62;16.20;;;;;;;10.11;88.44;101083.84;5562728;32;33681;-56
2022/12/05 13:31:04;;;;;;;24.73;18.92;;;;;;;9.99;78.29;101094.75;5562293;32;33699;-56
2022/12/05 13:34:25;;;;;;;24.33;19.92;;;;;;;10.14;83.45;101094.06;5558856;32;33641;-56
2022/12/05 13:44:14;;;;;;;20.80;18.52;;;;;;;9.95;83.85;101098.22;5567580;32;34322;-55
2022/12/05 13:47:31;;;;;;;24.12;19.65;;;;;;;9.84;80.31;101095.47;5568244;32;33258;-55
2022/12/05 13:50:50;;;;;;;22.37;19.25;;;;;;;9.96;81.76;101099.81;5563211;32;34367;-56
2022/12/05 13:54:23;;;;;;;19.40;17.37;;;;;;;9.76;80.38;101095.13;5569432;32;33397;-55
2022/12/05 13:57:38;;;;;;;21.02;18.15;;;;;;;9.88;80.21;101098.44;5569644;32;34449;-55
2022/12/05 14:00:40;;;;;;;20.08;17.98;;;;;;;9.82;82.23;101105.63;5569228;32;33869;-55
2022/12/05 14:03:45;;;;;;;20.75;17.85;;;;;;;9.71;78.22;101114.66;5570029;32;33834;-55
2022/12/05 14:06:50;;;;;;;19.35;17.33;;;;;;;9.97;80.87;101099.56;5570263;32;33888;-55
2022/12/05 14:09:54;;;;;;;22.42;17.65;;;;;;;9.93;80.81;101103.00;5570326;32;34440;-55
2022/12/05 14:13:19;;;;;;;24.70;18.23;;;;;;;9.91;78.74;101100.59;5569705;32;33744;-55
2022/12/05 14:16:21;;;;;;;18.20;16.07;;;;;;;9.92;83.19;101098.72;5570118;32;33579;-55
2022/12/05 14:19:29;;;;;;;20.15;17.12;;;;;;;9.98;87.05;101095.03;5570440;32;33721;-55
2022/12/05 14:23:04;;;;;;;17.75;15.70;;;;;;;9.88;76.28;101093.88;5569021;32;34521;-56
2022/12/05 14:26:13;;;;;;;19.67;16.55;;;;;;;9.99;85.00;101088.59;5570084;32;33619;-55
2022/12/05 14:29:35;;;;;;;17.73;15.52;;;;;;;10.11;80.97;101099.91;5569794;32;33300;-55
2022/12/05 14:32:42;;;;;;;15.70;13.95;;;;;;;10.03;78.45;101095.03;5569286;32;34245;-55
2022/12/05 14:35:50;;;;;;;16.87;15.05;;;;;;;9.91;79.22;101105.16;5570076;32;34590;-55
2022/12/05 14:38:52;;;;;;;16.98;14.95;;;;;;;10.08;85.94;101105.78;5569539;32;33352;-55
2022/12/05 14:42:00;;;;;;;16.37;14.20;;;;;;;10.09;80.70;101097.50;5569353;32;33591;-55
2022/12/05 14:45:23;;;;;;;19.30;14.70;;;;;;;10.07;85.97;101093.47;5568976;32;34609;-55
2022/12/05 14:48:32;;;;;;;17.23;15.07;;;;;;;10.11;82.19;101095.38;5568549;32;33774;-55
2022/12/05 14:51:35;;;;;;;15.52;13.93;;;;;;;10.11;80.16;101089.22;5568643;32;34450;-56
2022/12/05 14:54:38;;;;;;;20.83;15.60;;;;;;;9.97;77.01;101082.69;5563047;32;33677;-56
2022/12/05 14:57:47;;;;;;;18.40;14.82;;;;;;;9.91;84.77;101089.09;5569545;32;33387;-56
2022/12/05 15:00:56;;;;;;;20.37;15.38;;;;;;;10.23;89.00;101089.81;5569538;32;34363;-55
2022/12/05 15:04:10;;;;;;;17.20;14.05;;;;;;;10.22;83.92;101088.19;5569294;32;33583;-55
2022/12/05 15:07:18;;;;;;;20.12;15.20;;;;;;;10.02;77.04;101090.75;5569591;32;33813;-55
2022/12/05 15:10:28;;;;;;;19.10;15.00;;;;;;;9.84;80.35;101092.00;5569791;32;33866;-55
2022/12/05 15:13:31;;;;;;;17.67;14.55;;;;;;;9.94;83.44;101077.87;5569313;32;33681;-55
2022/12/05 15:16:36;;;;;;;19.02;14.95;;;;;;;9.93;78.21;101065.50;5568755;32;34474;-55
2022/12/05 15:19:49;;;;;;;16.23;13.63;;;;;;;9.91;81.29;101075.69;5563182;32;33778;-55
2022/12/05 15:22:52;;;;;;;17.10;13.93;;;;;;;9.85;77.03;101088.25;5569796;32;33726;-55
2022/12/05 15:25:54;;;;;;;15.48;13.70;;;;;;;10.01;79.95;101086.47;5569695;32;34413;-55
2022/12/05 15:29:12;;;;;;;21.05;14.38;;;;;;;9.93;79.97;101079.72;5569627;32;33577;-55
2022/12/05 15:32:20;;;;;;;15.18;13.57;;;;;;;9.94;77.64;101083.22;5569701;32;34363;-55
2022/12/05 15:35:26;;;;;;;17.40;14.20;;;;;;;10.11;82.95;101068.56;5569112;32;34376;-55
2022/12/05 15:38:31;;;;;;;21.05;13.80;;;;;;;10.12;81.81;101061.34;5569149;32;33659;-55
2022/12/05 15:41:33;;;;;;;14.77;13.05;;;;;;;10.11;76.25;101057.84;5569630;32;33925;-55
2022/12/05 15:44:36;;;;;;;13.93;12.43;;;;;;;10.02;80.11;101058.59;5568982;32;33727;-56
2022/12/05 15:47:40;;;;;;;13.73;12.23;;;;;;;10.15;82.96;101052.78;5568724;32;34303;-55
2022/12/05 15:50:48;;;;;;;13.62;11.27;;;;;;;10.23;90.12;101049.63;5567744;32;33829;-56
2022/12/05 15:54:07;;;;;;;15.45;12.23;;;;;;;10.08;82.17;101044.97;5569197;32;33702;-55
2022/12/05 15:57:18;;;;;;;16.42;11.77;;;;;;;10.19;87.76;101050.37;5569513;32;34277;-55
2022/12/05 16:00:21;;;;;;;14.98;11.50;;;;;;;10.17;82.72;101045.31;5569271;32;33627;-56
2022/12/05 16:03:33;;;;;;;14.93;10.82;;;;;;;10.11;85.41;101035.62;5569187;32;33613;-55
2022/12/05 16:06:51;;;;;;;12.05;10.38;;;;;;;10.08;77.24;101044.97;5569260;32;34105;-55
2022/12/05 16:09:58;;;;;;;11.10;9.30;;;;;;;10.05;79.21;101056.22;5568595;32;34160;-55
2022/12/05 16:41:43;;;;;;;13.82;8.98;;;;;;;9.76;79.48;101061.13;5568777;32;34222;-55
2022/12/05 16:44:45;;;;;;;12.43;8.57;;;;;;;9.76;78.29;101069.16;5568840;32;33693;-56
2022/12/05 16:47:57;;;;;;;12.30;8.57;;;;;;;9.66;78.59;101071.75;5568940;32;33661;-55
